createdAt,value
2022-12-05T00:01:38.946Z,101537.44
2022-12-05T00:04:08.755Z,101567.84
2022-12-05T00:06:39.210Z,101542.38
2022-12-05T00:09:08.044Z,101553.25
2022-12-05T00:11:36.658Z,101561.94
2022-12-05T00:14:04.981Z,101572.09
2022-12-05T00:16:33.653Z,101562.53
2022-12-05T00:19:02.487Z,101560.81
2022-12-05T00:21:31.335Z,101560.75
2022-12-05T00:24:01.430Z,101557.50
2022-12-05T00:26:29.608Z,101557.59
2022-12-05T00:28:59.320Z,101558.13
2022-12-05T00:31:27.863Z,101561.41
2022-12-05T00:33:56.002Z,101557.31
2022-12-05T00:36:24.681Z,101548.97
2022-12-05T00:38:53.441Z,101555.78
2022-12-05T00:41:27.862Z,101553.91
2022-12-05T00:43:56.489Z,101552.50
2022-12-05T00:46:25.477Z,101539.75
2022-12-05T00:48:54.003Z,101538.91
2022-12-05T00:51:23.248Z,101526.38
2022-12-05T00:53:51.620Z,101533.31
2022-12-05T00:56:20.537Z,101539.06
2022-12-05T00:58:50.317Z,101538.44
2022-12-05T01:01:19.957Z,101541.06
2022-12-05T01:03:48.480Z,101536.78
2022-12-05T01:06:17.201Z,101540.94
2022-12-05T01:08:45.671Z,101542.31
2022-12-05T01:11:15.613Z,101537.81
2022-12-05T01:13:43.725Z,101529.31
2022-12-05T01:16:16.638Z,101517.38
2022-12-05T01:18:44.712Z,101520.00
2022-12-05T01:21:12.719Z,101508.69
2022-12-05T01:23:40.681Z,101512.25
2022-12-05T01:26:09.245Z,101512.16
2022-12-05T01:28:37.875Z,101507.03
2022-12-05T01:31:07.083Z,101504.53
2022-12-05T01:33:36.480Z,101490.25
2022-12-05T01:36:05.147Z,101484.97
2022-12-05T01:38:33.142Z,101476.59
2022-12-05T01:41:02.083Z,101492.75
2022-12-05T01:43:30.393Z,101481.66
2022-12-05T01:45:58.388Z,101480.06
2022-12-05T01:48:28.016Z,101474.91
2022-12-05T01:50:57.735Z,101486.72
2022-12-05T01:53:25.971Z,101476.59
2022-12-05T01:55:54.701Z,101473.97
2022-12-05T01:58:23.143Z,101473.13
2022-12-05T02:00:51.171Z,101462.19
2022-12-05T02:03:20.437Z,101481.66
2022-12-05T02:05:50.049Z,101478.13
2022-12-05T02:08:20.018Z,101478.34
2022-12-05T02:10:50.991Z,101474.03
2022-12-05T02:13:27.216Z,101483.88
2022-12-05T02:16:01.141Z,101483.72
2022-12-05T02:18:35.628Z,101470.91
2022-12-05T02:21:08.300Z,101470.63
2022-12-05T02:23:57.997Z,101467.44
2022-12-05T02:26:36.643Z,101462.38
2022-12-05T02:29:23.836Z,101464.88
2022-12-05T02:31:57.111Z,101462.44
2022-12-05T02:34:28.701Z,101466.63
2022-12-05T02:36:59.357Z,101463.13
2022-12-05T02:39:31.226Z,101458.06
2022-12-05T02:42:02.659Z,101458.97
2022-12-05T02:44:34.322Z,101454.06
2022-12-05T02:47:05.367Z,101450.47
2022-12-05T02:49:35.266Z,101444.56
2022-12-05T02:52:04.662Z,101448.31
2022-12-05T02:54:34.926Z,101441.25
2022-12-05T02:57:03.213Z,101446.28
2022-12-05T02:59:31.416Z,101436.25
2022-12-05T03:01:59.709Z,101438.91
2022-12-05T03:04:30.151Z,101437.16
2022-12-05T03:07:00.248Z,101437.91
2022-12-05T03:09:31.324Z,101437.09
2022-12-05T03:12:02.038Z,101439.03
2022-12-05T03:14:32.886Z,101433.81
2022-12-05T03:17:02.595Z,101428.69
2022-12-05T03:19:34.094Z,101430.66
2022-12-05T03:22:03.015Z,101425.56
2022-12-05T03:24:31.944Z,101422.94
2022-12-05T03:27:03.898Z,101422.06
2022-12-05T03:29:36.547Z,101425.31
2022-12-05T03:32:08.267Z,101426.41
2022-12-05T03:34:44.302Z,101426.28
2022-12-05T03:37:14.939Z,101424.00
2022-12-05T03:39:46.131Z,101417.19
2022-12-05T03:42:15.193Z,101414.84
2022-12-05T03:44:47.063Z,101413.25
2022-12-05T03:47:19.006Z,101409.16
2022-12-05T03:49:50.713Z,101410.69
2022-12-05T03:52:22.193Z,101409.09
2022-12-05T03:54:52.598Z,101401.47
2022-12-05T03:57:23.320Z,101409.22
2022-12-05T03:59:53.933Z,101397.47
2022-12-05T04:02:25.126Z,101398.41
2022-12-05T04:04:56.657Z,101399.34
2022-12-05T04:07:26.148Z,101391.56
2022-12-05T04:09:57.897Z,101385.81
2022-12-05T04:12:28.451Z,101385.81
2022-12-05T04:14:59.207Z,101381.75
2022-12-05T04:17:30.490Z,101386.03
2022-12-05T04:20:19.520Z,101385.34
2022-12-05T04:22:48.352Z,101382.44
2022-12-05T04:25:34.746Z,101372.22
2022-12-05T04:28:11.024Z,101385.94
2022-12-05T04:30:41.448Z,101367.41
2022-12-05T04:33:12.004Z,101367.31
2022-12-05T04:35:43.209Z,101364.16
2022-12-05T04:38:13.349Z,101356.50
2022-12-05T04:40:43.047Z,101366.53
2022-12-05T04:43:12.698Z,101367.41
2022-12-05T04:45:42.117Z,101369.81
2022-12-05T04:48:13.067Z,101363.16
2022-12-05T04:50:43.720Z,101362.25
2022-12-05T04:53:12.525Z,101360.72
2022-12-05T04:55:42.263Z,101355.75
2022-12-05T04:58:11.905Z,101353.19
2022-12-05T05:00:46.683Z,101346.00
2022-12-05T05:03:18.127Z,101343.44
2022-12-05T05:05:48.793Z,101342.53
2022-12-05T05:08:20.748Z,101343.47
2022-12-05T05:10:53.083Z,101341.69
2022-12-05T05:13:21.033Z,101340.88
2022-12-05T05:15:49.016Z,101341.13
2022-12-05T05:18:17.191Z,101353.69
2022-12-05T05:20:45.080Z,101350.22
2022-12-05T05:23:14.695Z,101352.00
2022-12-05T05:25:42.705Z,101357.00
2022-12-05T05:28:10.664Z,101356.84
2022-12-05T05:30:38.689Z,101362.53
2022-12-05T05:33:06.742Z,101356.34
2022-12-05T05:35:37.388Z,101364.72
2022-12-05T05:38:05.510Z,101347.56
2022-12-05T05:40:36.040Z,101348.94
2022-12-05T05:43:04.078Z,101349.47
2022-12-05T05:45:32.071Z,101341.72
2022-12-05T05:48:00.174Z,101332.88
2022-12-05T05:50:28.341Z,101328.38
2022-12-05T05:52:56.500Z,101325.66
2022-12-05T05:55:24.499Z,101328.69
2022-12-05T05:57:53.925Z,101331.03
2022-12-05T06:00:22.030Z,101334.72
2022-12-05T06:02:50.057Z,101339.41
2022-12-05T06:05:18.107Z,101339.94
2022-12-05T06:07:46.154Z,101334.50
2022-12-05T06:10:14.191Z,101328.69
2022-12-05T06:12:42.188Z,101330.13
2022-12-05T06:15:12.303Z,101331.09
2022-12-05T06:17:40.434Z,101333.97
2022-12-05T06:20:08.964Z,101329.63
2022-12-05T06:22:37.060Z,101330.63
2022-12-05T06:25:05.314Z,101323.44
2022-12-05T06:27:34.431Z,101323.63
2022-12-05T06:30:02.321Z,101319.41
2022-12-05T06:32:32.561Z,101327.13
2022-12-05T06:35:00.500Z,101320.66
2022-12-05T06:37:28.546Z,101328.88
2022-12-05T06:39:57.070Z,101325.25
2022-12-05T06:42:28.346Z,101322.41
2022-12-05T06:44:56.365Z,101330.19
2022-12-05T06:47:24.257Z,101324.84
2022-12-05T06:49:53.570Z,101321.16
2022-12-05T06:52:21.882Z,101299.19
2022-12-05T06:54:49.826Z,101313.81
2022-12-05T06:57:17.829Z,101317.88
2022-12-05T06:59:45.824Z,101314.94
2022-12-05T07:02:13.123Z,101318.16
2022-12-05T07:04:41.258Z,101323.31
2022-12-05T07:07:10.755Z,101325.88
2022-12-05T07:09:48.571Z,101324.16
2022-12-05T07:12:18.275Z,101324.75
2022-12-05T07:14:48.696Z,101322.50
2022-12-05T07:17:17.677Z,101316.53
2022-12-05T07:19:45.636Z,101324.09
2022-12-05T07:22:16.187Z,101311.38
2022-12-05T07:24:44.435Z,101315.91
2022-12-05T07:27:12.965Z,101313.00
2022-12-05T07:29:40.867Z,101307.28
2022-12-05T07:32:09.119Z,101303.47
2022-12-05T07:34:38.971Z,101300.81
2022-12-05T07:37:07.217Z,101304.06
2022-12-05T07:39:36.640Z,101300.03
2022-12-05T07:42:04.525Z,101303.19
2022-12-05T07:44:32.687Z,101306.47
2022-12-05T07:47:00.717Z,101300.66
2022-12-05T07:49:28.895Z,101296.00
2022-12-05T07:51:56.877Z,101292.00
2022-12-05T07:54:24.847Z,101287.06
2022-12-05T07:56:54.355Z,101289.44
2022-12-05T07:59:22.345Z,101295.00
2022-12-05T08:01:50.536Z,101285.25
2022-12-05T08:04:18.913Z,101293.16
2022-12-05T08:06:46.922Z,101281.94
2022-12-05T08:09:15.061Z,101280.13
2022-12-05T08:11:46.991Z,101283.84
2022-12-05T08:14:19.074Z,101274.41
2022-12-05T08:16:47.383Z,101270.78
2022-12-05T08:19:17.216Z,101266.56
2022-12-05T08:21:45.352Z,101263.81
2022-12-05T08:24:13.400Z,101260.69
2022-12-05T08:26:41.475Z,101261.34
2022-12-05T08:29:10.813Z,101254.91
2022-12-05T08:31:41.285Z,101254.38
2022-12-05T08:34:09.417Z,101247.41
2022-12-05T08:36:37.628Z,101253.75
2022-12-05T08:39:07.506Z,101239.69
2022-12-05T08:41:35.908Z,101246.31
2022-12-05T08:44:05.628Z,101249.69
2022-12-05T08:46:34.397Z,101232.75
2022-12-05T08:49:04.022Z,101250.47
2022-12-05T08:51:32.183Z,101244.84
2022-12-05T08:54:00.442Z,101246.84
2022-12-05T08:56:28.499Z,101253.28
2022-12-05T08:59:01.426Z,101242.91
2022-12-05T09:01:33.613Z,101235.53
2022-12-05T09:04:04.952Z,101234.50
2022-12-05T09:06:34.657Z,101235.31
2022-12-05T09:09:05.831Z,101226.25
2022-12-05T09:11:34.906Z,101226.38
2022-12-05T09:14:03.431Z,101226.88
2022-12-05T09:16:37.492Z,101215.53
2022-12-05T09:19:15.045Z,101217.47
2022-12-05T09:21:43.599Z,101211.81
2022-12-05T09:24:12.944Z,101206.72
2022-12-05T09:26:41.363Z,101210.78
2022-12-05T09:29:15.796Z,101203.94
2022-12-05T09:31:45.113Z,101205.19
2022-12-05T09:34:15.477Z,101201.44
2022-12-05T09:36:44.028Z,101196.81
2022-12-05T09:39:12.663Z,101195.38
2022-12-05T09:42:08.222Z,101203.41
2022-12-05T09:45:06.193Z,101184.31
2022-12-05T09:47:37.846Z,101181.94
2022-12-05T09:50:16.723Z,101183.69
2022-12-05T09:52:46.268Z,101171.63
2022-12-05T09:55:15.470Z,101171.41
2022-12-05T09:57:46.092Z,101161.47
2022-12-05T10:00:15.139Z,101168.06
2022-12-05T10:02:49.767Z,101165.81
2022-12-05T10:05:22.541Z,101161.38
2022-12-05T10:07:55.425Z,101165.19
2022-12-05T10:10:27.331Z,101157.53
2022-12-05T10:13:01.596Z,101156.47
2022-12-05T10:15:32.481Z,101153.13
2022-12-05T10:18:03.120Z,101150.03
2022-12-05T10:20:35.254Z,101153.75
2022-12-05T10:23:05.657Z,101146.88
2022-12-05T10:25:34.513Z,101147.22
2022-12-05T10:28:04.314Z,101139.84
2022-12-05T10:30:36.314Z,101141.50
2022-12-05T10:33:09.670Z,101139.22
2022-12-05T10:35:40.421Z,101143.63
2022-12-05T10:38:12.702Z,101140.63
2022-12-05T10:40:42.141Z,101138.69
2022-12-05T10:43:12.122Z,101134.44
2022-12-05T10:45:43.066Z,101132.09
2022-12-05T10:48:12.672Z,101124.34
2022-12-05T10:50:43.484Z,101123.63
2022-12-05T10:53:16.620Z,101127.34
2022-12-05T10:56:06.375Z,101125.69
2022-12-05T10:58:33.538Z,101129.75
2022-12-05T11:01:10.064Z,101131.13
2022-12-05T11:03:39.889Z,101129.09
2022-12-05T11:06:18.586Z,101133.34
2022-12-05T11:09:04.516Z,101126.13
2022-12-05T11:11:34.128Z,101125.63
2022-12-05T11:14:03.523Z,101125.06
2022-12-05T11:16:33.149Z,101122.81
2022-12-05T11:19:19.277Z,101116.44
2022-12-05T11:21:48.851Z,101119.34
2022-12-05T11:24:22.477Z,101116.00
2022-12-05T11:26:50.877Z,101117.88
2022-12-05T11:29:32.547Z,101117.06
2022-12-05T11:32:00.762Z,101118.50
2022-12-05T11:34:31.273Z,101107.03
2022-12-05T11:37:04.372Z,101097.25
2022-12-05T11:39:33.401Z,101112.44
2022-12-05T11:42:18.039Z,101102.22
2022-12-05T11:44:54.561Z,101099.94
2022-12-05T11:47:30.673Z,101093.44
2022-12-05T11:50:11.453Z,101096.75
2022-12-05T11:52:52.515Z,101091.50
2022-12-05T11:55:23.025Z,101095.50
2022-12-05T11:58:14.925Z,101083.84
2022-12-05T12:00:49.546Z,101090.03
2022-12-05T12:03:32.597Z,101077.03
2022-12-05T12:06:07.619Z,101050.38
2022-12-05T12:08:44.647Z,101060.09
2022-12-05T12:11:17.714Z,101053.19
2022-12-05T12:13:59.003Z,101050.63
2022-12-05T12:16:33.264Z,101057.81
2022-12-05T12:19:10.923Z,101054.50
2022-12-05T12:21:47.687Z,101052.56
2022-12-05T12:24:23.724Z,101045.84
2022-12-05T12:26:58.289Z,101045.63
2022-12-05T12:29:33.303Z,101036.34
2022-12-05T12:32:11.855Z,101028.69
2022-12-05T12:34:56.948Z,101032.50
2022-12-05T12:37:28.280Z,101017.75
2022-12-05T12:40:03.063Z,101023.31
2022-12-05T12:42:36.808Z,101032.94
2022-12-05T12:45:18.886Z,101031.00
2022-12-05T12:47:56.476Z,101029.06
2022-12-05T12:50:25.808Z,101030.28
2022-12-05T12:53:11.030Z,101028.81
2022-12-05T12:55:43.528Z,101034.31
2022-12-05T12:58:17.511Z,101031.25
2022-12-05T13:00:52.753Z,101032.03
2022-12-05T13:03:23.196Z,101018.63
2022-12-05T13:05:53.210Z,101012.47
2022-12-05T13:08:25.371Z,101012.66
2022-12-05T13:10:55.503Z,101013.03
2022-12-05T13:13:25.830Z,101017.38
2022-12-05T13:15:55.012Z,101012.59
2022-12-05T13:18:24.564Z,101011.31
2022-12-05T13:20:54.199Z,101009.94
2022-12-05T13:23:24.008Z,101008.81
2022-12-05T13:25:53.034Z,101008.44
2022-12-05T13:28:28.150Z,101009.66
2022-12-05T13:31:01.804Z,101004.31
2022-12-05T13:33:32.209Z,101000.72
2022-12-05T13:36:23.573Z,100997.31
2022-12-05T13:39:14.917Z,100994.94
2022-12-05T13:42:01.932Z,100993.09
2022-12-05T13:44:34.682Z,100996.47
2022-12-05T13:47:07.290Z,100992.06
2022-12-05T13:49:39.911Z,100987.72
2022-12-05T13:52:09.548Z,100983.59
2022-12-05T13:54:44.440Z,100992.25
2022-12-05T13:57:27.274Z,100979.19
2022-12-05T14:00:23.288Z,100967.03
2022-12-05T14:02:55.411Z,100972.09
2022-12-05T14:05:43.389Z,100983.13
2022-12-05T14:08:29.770Z,100979.44
2022-12-05T14:11:12.873Z,100945.28
2022-12-05T14:13:42.557Z,100928.00
2022-12-05T14:16:29.243Z,100954.31
2022-12-05T14:19:04.250Z,100948.75
2022-12-05T14:21:40.459Z,100951.63
2022-12-05T14:24:13.403Z,100941.13
2022-12-05T14:26:52.408Z,100949.88
2022-12-05T14:29:35.226Z,100963.28
2022-12-05T14:32:08.566Z,100945.47
2022-12-05T14:34:39.006Z,100942.09
2022-12-05T14:37:09.567Z,100934.84
2022-12-05T14:39:40.060Z,100930.22
2022-12-05T14:42:21.049Z,100921.66
2022-12-05T14:44:50.087Z,100927.44
2022-12-05T14:47:20.264Z,100921.38
2022-12-05T14:49:58.154Z,100916.31
2022-12-05T14:52:27.568Z,100922.31
2022-12-05T14:54:59.297Z,100916.31
2022-12-05T14:57:27.600Z,100918.28
2022-12-05T14:59:58.081Z,100906.63
2022-12-05T15:02:28.375Z,100912.38
2022-12-05T15:05:01.021Z,100907.13
2022-12-05T15:07:35.869Z,100909.63
2022-12-05T15:10:06.230Z,100906.13
2022-12-05T15:12:38.411Z,100902.81
2022-12-05T15:15:09.588Z,100897.53
2022-12-05T15:17:39.358Z,100905.00
2022-12-05T15:20:15.419Z,100893.94
2022-12-05T15:22:43.724Z,100894.75
2022-12-05T15:25:23.793Z,100890.72
2022-12-05T15:27:56.160Z,100889.53
2022-12-05T15:30:24.257Z,100893.09
2022-12-05T15:32:57.717Z,100896.81
2022-12-05T15:35:30.245Z,100888.66
2022-12-05T15:38:00.942Z,100882.38
2022-12-05T15:40:37.766Z,100879.19
2022-12-05T15:43:27.639Z,100882.50
2022-12-05T15:46:08.279Z,100877.34
2022-12-05T15:48:36.278Z,100876.50
2022-12-05T15:51:05.971Z,100874.84
2022-12-05T15:53:37.009Z,100871.34
2022-12-05T15:56:08.015Z,100867.13
2022-12-05T15:58:38.023Z,100856.75
2022-12-05T16:01:10.555Z,100858.66
2022-12-05T16:03:41.035Z,100865.41
2022-12-05T16:06:12.965Z,100863.94
2022-12-05T16:08:45.063Z,100860.34
2022-12-05T16:11:13.974Z,100858.38
2022-12-05T16:13:44.165Z,100856.31
2022-12-05T16:16:20.351Z,100858.88
2022-12-05T16:18:54.689Z,100850.34
2022-12-05T16:21:37.386Z,100837.59
2022-12-05T16:24:09.164Z,100841.81
2022-12-05T16:26:39.961Z,100836.84
2022-12-05T16:29:09.702Z,100832.63
2022-12-05T16:31:39.175Z,100828.13
2022-12-05T16:34:08.566Z,100824.91
2022-12-05T16:36:47.405Z,100830.06
2022-12-05T16:39:19.550Z,100824.09
2022-12-05T16:41:48.326Z,100833.47
2022-12-05T16:44:32.014Z,100828.44
2022-12-05T16:47:00.212Z,100822.13
2022-12-05T16:49:36.404Z,100827.78
2022-12-05T16:52:14.809Z,100826.25
2022-12-05T16:54:42.899Z,100823.47
2022-12-05T16:57:13.395Z,100824.28
2022-12-05T16:59:43.183Z,100827.72
2022-12-05T17:02:13.833Z,100816.56
2022-12-05T17:04:41.961Z,100822.03
2022-12-05T17:07:10.255Z,100801.53
2022-12-05T17:09:39.669Z,100804.94
2022-12-05T17:12:09.999Z,100805.78
2022-12-05T17:14:38.092Z,100792.06
2022-12-05T17:17:09.097Z,100776.19
2022-12-05T17:19:37.355Z,100798.75
2022-12-05T17:22:06.549Z,100800.31
2022-12-05T17:24:34.686Z,100800.78
2022-12-05T17:27:04.199Z,100790.72
2022-12-05T17:29:35.700Z,100795.16
2022-12-05T17:32:04.429Z,100795.97
2022-12-05T17:34:32.450Z,100791.53
2022-12-05T17:37:00.500Z,100779.06
2022-12-05T17:39:29.056Z,100781.44
2022-12-05T17:41:57.270Z,100785.66
2022-12-05T17:44:26.871Z,100786.28
2022-12-05T17:46:55.258Z,100781.84
2022-12-05T17:49:23.293Z,100786.38
2022-12-05T17:52:20.582Z,100791.72
2022-12-05T17:54:41.945Z,100782.13
2022-12-05T17:57:10.177Z,100795.09
2022-12-05T17:59:39.676Z,100795.81
2022-12-05T18:02:07.969Z,100799.59
2022-12-05T18:04:36.894Z,100801.16
2022-12-05T18:07:05.105Z,100803.44
2022-12-05T18:09:33.172Z,100803.22
2022-12-05T18:12:01.286Z,100801.84
2022-12-05T18:14:29.744Z,100807.00
2022-12-05T18:16:59.271Z,100801.75
2022-12-05T18:19:27.707Z,100801.44
2022-12-05T18:21:55.738Z,100801.66
2022-12-05T18:24:23.964Z,100808.53
2022-12-05T18:26:51.908Z,100805.53
2022-12-05T18:29:19.972Z,100801.44
2022-12-05T18:31:48.597Z,100791.34
2022-12-05T18:34:18.031Z,100788.34
2022-12-05T18:36:46.110Z,100791.97
2022-12-05T18:39:15.193Z,100780.94
2022-12-05T18:41:43.434Z,100770.13
2022-12-05T18:44:11.488Z,100770.53
2022-12-05T18:46:39.470Z,100768.41
2022-12-05T18:49:08.123Z,100762.66
2022-12-05T18:51:37.517Z,100760.81
2022-12-05T18:54:05.559Z,100763.38
2022-12-05T18:56:35.256Z,100768.53
2022-12-05T18:59:04.828Z,100763.47
2022-12-05T19:01:34.122Z,100749.28
2022-12-05T19:04:02.774Z,100732.28
2022-12-05T19:06:32.266Z,100741.56
2022-12-05T19:09:04.435Z,100737.25
2022-12-05T19:11:32.584Z,100729.53
2022-12-05T19:14:01.325Z,100738.91
2022-12-05T19:16:30.097Z,100736.75
2022-12-05T19:18:59.053Z,100740.25
2022-12-05T19:21:28.617Z,100732.41
2022-12-05T19:23:57.453Z,100742.41
2022-12-05T19:26:26.922Z,100736.44
2022-12-05T19:28:54.805Z,100748.59
2022-12-05T19:31:23.721Z,100731.41
2022-12-05T19:33:52.957Z,100728.19
2022-12-05T19:36:22.124Z,100716.25
2022-12-05T19:38:51.492Z,100724.28
2022-12-05T19:41:21.056Z,100727.78
2022-12-05T19:43:50.778Z,100714.28
2022-12-05T19:46:20.314Z,100723.66
2022-12-05T19:48:48.420Z,100713.38
2022-12-05T19:51:16.658Z,100714.50
2022-12-05T19:53:45.195Z,100711.00
2022-12-05T19:56:14.799Z,100698.75
2022-12-05T19:58:43.619Z,100699.47
2022-12-05T20:01:14.287Z,100696.50
2022-12-05T20:03:43.038Z,100695.97
2022-12-05T20:06:11.599Z,100695.88
2022-12-05T20:08:40.092Z,100694.13
2022-12-05T20:11:09.687Z,100694.31
2022-12-05T20:13:46.511Z,100690.50
2022-12-05T20:16:18.562Z,100699.88
2022-12-05T20:18:47.265Z,100707.72
2022-12-05T20:21:26.693Z,100687.84
2022-12-05T20:23:55.626Z,100702.44
2022-12-05T20:26:25.047Z,100699.69
2022-12-05T20:28:53.220Z,100706.66
2022-12-05T20:31:24.179Z,100695.34
2022-12-05T20:33:52.868Z,100704.44
2022-12-05T20:36:21.894Z,100707.19
2022-12-05T20:38:50.258Z,100703.69
2022-12-05T20:41:20.296Z,100709.56
2022-12-05T20:43:49.613Z,100698.75
2022-12-05T20:46:19.006Z,100701.63
2022-12-05T20:48:49.416Z,100696.19
2022-12-05T20:51:18.551Z,100700.50
2022-12-05T20:53:47.478Z,100697.94
2022-12-05T20:56:17.597Z,100694.75
2022-12-05T20:58:47.057Z,100685.38
2022-12-05T21:01:16.482Z,100674.16
2022-12-05T21:03:45.708Z,100681.75
2022-12-05T21:06:16.269Z,100676.59
2022-12-05T21:08:45.088Z,100671.97
2022-12-05T21:11:14.185Z,100673.09
2022-12-05T21:13:43.536Z,100674.88
2022-12-05T21:16:13.369Z,100678.16
2022-12-05T21:18:42.110Z,100675.28
2022-12-05T21:21:13.528Z,100673.31
2022-12-05T21:23:43.988Z,100672.19
2022-12-05T21:26:14.122Z,100656.22
2022-12-05T21:28:42.706Z,100665.91
2022-12-05T21:31:12.340Z,100661.81
2022-12-05T21:33:40.793Z,100643.06
2022-12-05T21:36:12.059Z,100646.34
2022-12-05T21:38:40.778Z,100641.50
2022-12-05T21:41:11.070Z,100646.53
2022-12-05T21:43:39.344Z,100638.72
2022-12-05T21:46:08.104Z,100636.75
2022-12-05T21:48:36.541Z,100631.59
2022-12-05T21:51:07.872Z,100633.44
2022-12-05T21:53:36.229Z,100626.03
2022-12-05T21:56:05.585Z,100630.66
2022-12-05T21:58:40.708Z,100628.50
2022-12-05T22:01:10.657Z,100596.28
2022-12-05T22:03:39.102Z,100620.03
2022-12-05T22:06:08.443Z,100615.94
2022-12-05T22:08:37.306Z,100610.66
2022-12-05T22:11:06.475Z,100616.94
2022-12-05T22:29:42.907Z,100589.81
2022-12-05T22:32:11.159Z,100588.16
2022-12-05T22:34:39.366Z,100583.75
2022-12-05T22:37:07.485Z,100580.75
2022-12-05T22:39:35.513Z,100574.56
2022-12-05T22:42:03.887Z,100565.78
2022-12-05T22:44:32.224Z,100573.72
2022-12-05T22:47:02.488Z,100566.50
2022-12-05T22:49:30.739Z,100560.25
2022-12-05T22:51:59.270Z,100558.06
2022-12-05T22:54:30.340Z,100557.97
2022-12-05T22:56:58.939Z,100557.72
2022-12-05T22:59:27.247Z,100556.13
2022-12-05T23:01:55.492Z,100565.03
2022-12-05T23:04:25.742Z,100560.56
2022-12-05T23:06:53.984Z,100557.13
2022-12-05T23:09:22.648Z,100544.06
2022-12-05T23:11:51.269Z,100550.63
2022-12-05T23:14:19.569Z,100528.28
2022-12-05T23:16:47.856Z,100535.41
2022-12-05T23:19:16.020Z,100520.75
2022-12-05T23:21:45.643Z,100523.97
2022-12-05T23:24:14.356Z,100531.56
2022-12-05T23:26:43.522Z,100522.59
2022-12-05T23:29:12.605Z,100511.91
2022-12-05T23:31:40.901Z,100515.31
2022-12-05T23:34:09.099Z,100514.59
2022-12-05T23:36:37.229Z,100517.97
2022-12-05T23:39:06.997Z,100525.59
2022-12-05T23:41:35.342Z,100522.78
2022-12-05T23:44:03.451Z,100522.66
2022-12-05T23:46:31.624Z,100521.47
2022-12-05T23:49:00.190Z,100512.06
2022-12-05T23:51:29.192Z,100509.28
2022-12-05T23:53:57.787Z,100520.38
2022-12-05T23:56:28.361Z,100506.31
2022-12-05T23:58:57.602Z,100501.75
